Time;durP1;ratioP1;P1;durP2;ratioP2;P2;SDS_P1;SDS_P2;PMS_P1;PMS_P2;Temp;Humidity;BMP_temperature;BMP_pressure;BME280_temperature;BME280_humidity;BME280_pressure;Samples;Min_cycle;Max_cycle;Signal;HPM_P1;HPM_P2
2023/09/15 00:00:24;;;;;;;14.25;12.75;;;;;;;16.02;64.76;101899.16;5030121;28;20033;-69
2023/09/15 00:02:52;;;;;;;15.38;13.63;;;;;;;15.98;64.73;101899.94;5011933;28;20032;-70
2023/09/15 00:05:20;;;;;;;15.45;13.45;;;;;;;15.91;64.94;101895.38;5027265;28;20056;-70
2023/09/15 00:07:48;;;;;;;14.85;13.40;;;;;;;15.94;64.98;101903.28;5024147;28;20400;-69
2023/09/15 00:10:15;;;;;;;14.65;13.15;;;;;;;15.92;64.99;101894.31;5030589;28;20043;-70
2023/09/15 00:12:42;;;;;;;16.05;13.82;;;;;;;15.86;65.07;101889.75;5031281;28;20033;-69
2023/09/15 00:15:11;;;;;;;14.73;13.23;;;;;;;15.84;65.14;101891.97;5029947;28;20025;-69
2023/09/15 00:17:39;;;;;;;15.25;13.63;;;;;;;15.83;65.31;101893.06;5031368;28;20389;-70
2023/09/15 00:20:13;;;;;;;15.77;14.07;;;;;;;15.82;65.18;101884.94;5031187;28;20025;-70
2023/09/15 00:22:40;;;;;;;14.65;13.15;;;;;;;15.79;65.05;101885.47;5029069;28;20029;-70
2023/09/15 00:25:05;;;;;;;15.15;13.38;;;;;;;15.75;65.23;101881.50;5017099;28;20596;-70
2023/09/15 00:27:31;;;;;;;15.60;13.52;;;;;;;15.76;65.19;101880.38;5027496;28;20057;-69
2023/09/15 00:29:56;;;;;;;15.20;13.60;;;;;;;15.74;65.25;101880.66;5030624;28;20025;-69
2023/09/15 00:32:21;;;;;;;15.85;14.13;;;;;;;15.74;65.13;101879.81;5030398;28;20071;-69
2023/09/15 00:34:47;;;;;;;14.73;13.10;;;;;;;15.68;65.16;101876.13;5030351;28;20030;-70
2023/09/15 00:37:12;;;;;;;14.95;13.45;;;;;;;15.70;64.90;101873.88;5029421;28;20026;-70
2023/09/15 00:39:37;;;;;;;15.98;14.27;;;;;;;15.70;65.14;101879.50;5030947;28;20029;-70
2023/09/15 00:42:03;;;;;;;17.88;14.73;;;;;;;15.62;65.27;101877.13;5021405;28;20037;-69
2023/09/15 00:44:28;;;;;;;16.45;14.85;;;;;;;15.60;65.57;101874.59;5016323;28;20025;-70
2023/09/15 00:46:54;;;;;;;16.15;14.32;;;;;;;15.66;65.61;101872.72;5031112;28;20029;-69
2023/09/15 00:49:19;;;;;;;15.63;14.10;;;;;;;15.59;65.40;101878.47;5031103;28;20424;-70
2023/09/15 00:51:45;;;;;;;15.35;13.80;;;;;;;15.59;65.13;101874.84;5024029;28;20095;-69
2023/09/15 00:54:12;;;;;;;15.80;14.20;;;;;;;15.55;65.09;101871.72;5029352;28;20036;-70
2023/09/15 00:56:37;;;;;;;16.33;14.63;;;;;;;15.52;65.18;101863.00;5030200;28;20080;-70
2023/09/15 00:59:03;;;;;;;15.05;13.55;;;;;;;15.51;65.45;101866.91;5018245;28;20038;-69
2023/09/15 01:01:29;;;;;;;15.45;13.82;;;;;;;15.44;65.38;101870.78;5011360;28;20488;-69
2023/09/15 01:03:55;;;;;;;16.77;13.50;;;;;;;15.45;65.17;101866.03;5016938;28;20037;-70
2023/09/15 01:06:23;;;;;;;17.75;14.13;;;;;;;15.40;65.86;101861.19;5028191;28;20036;-69
2023/09/15 01:08:48;;;;;;;15.02;13.52;;;;;;;15.43;65.44;101862.63;5019966;28;20408;-69
2023/09/15 01:11:13;;;;;;;15.90;14.05;;;;;;;15.37;65.42;101858.94;5033522;28;20033;-70
2023/09/15 01:13:39;;;;;;;15.85;14.18;;;;;;;15.39;65.35;101859.50;5033696;28;20533;-70
2023/09/15 01:16:35;;;;;;;15.85;14.15;;;;;;;15.36;65.79;101857.22;5024145;28;20037;-69
2023/09/15 01:19:10;;;;;;;14.82;13.38;;;;;;;15.33;65.61;101857.75;5014069;28;20042;-70
2023/09/15 01:22:04;;;;;;;17.67;14.30;;;;;;;15.37;65.69;101858.94;5014539;28;20030;-70
2023/09/15 01:24:36;;;;;;;16.85;13.82;;;;;;;15.32;65.72;101856.03;5014736;28;20030;-70
2023/09/15 01:27:23;;;;;;;15.68;14.07;;;;;;;15.31;65.44;101848.78;5019120;28;20065;-71
2023/09/15 01:29:54;;;;;;;15.93;14.15;;;;;;;15.25;65.55;101848.97;5018214;28;20030;-69
2023/09/15 01:32:21;;;;;;;15.25;13.75;;;;;;;15.25;65.67;101843.38;5031530;28;20032;-69
2023/09/15 01:34:48;;;;;;;16.48;13.43;;;;;;;15.24;65.38;101850.91;5033843;28;20056;-69
2023/09/15 01:37:14;;;;;;;15.60;14.02;;;;;;;15.18;65.63;101849.19;5034220;28;20071;-69
2023/09/15 01:39:39;;;;;;;15.07;13.55;;;;;;;15.14;65.48;101836.81;5033117;28;20025;-69
2023/09/15 01:42:05;;;;;;;15.85;13.20;;;;;;;15.10;65.65;101839.28;5028767;28;20022;-69
2023/09/15 01:44:30;;;;;;;15.35;13.82;;;;;;;15.12;65.62;101837.06;5028665;28;20041;-69
2023/09/15 01:46:56;;;;;;;16.08;14.00;;;;;;;15.10;65.62;101830.91;5032470;28;20039;-69
2023/09/15 01:49:21;;;;;;;15.30;13.70;;;;;;;15.08;65.57;101835.03;5026775;28;20026;-70
2023/09/15 01:51:48;;;;;;;15.85;13.30;;;;;;;15.09;65.49;101836.72;5028661;28;20038;-69
2023/09/15 01:54:14;;;;;;;17.48;13.90;;;;;;;15.05;65.69;101833.63;5032882;28;20029;-69
2023/09/15 01:56:40;;;;;;;14.80;13.30;;;;;;;15.02;65.72;101836.09;5032362;28;20037;-69
2023/09/15 01:59:06;;;;;;;15.40;13.82;;;;;;;15.01;65.46;101831.59;5032439;28;20068;-69
2023/09/15 02:01:31;;;;;;;16.20;14.18;;;;;;;14.99;65.94;101829.06;5033132;28;20025;-70
2023/09/15 02:03:56;;;;;;;15.95;14.25;;;;;;;14.95;65.48;101828.72;5030799;28;20040;-69
2023/09/15 02:06:22;;;;;;;16.40;13.73;;;;;;;14.95;65.77;101828.72;5030480;28;20111;-69
2023/09/15 02:08:47;;;;;;;16.70;13.90;;;;;;;14.94;65.67;101827.06;5031776;28;20057;-69
2023/09/15 02:11:13;;;;;;;17.38;14.00;;;;;;;14.89;65.67;101829.75;5033408;28;20401;-69
2023/09/15 02:13:43;;;;;;;14.93;13.50;;;;;;;14.88;65.79;101830.03;5031285;28;20033;-70
2023/09/15 02:16:08;;;;;;;16.92;14.27;;;;;;;14.84;66.03;101835.28;5032513;28;20364;-69
2023/09/15 02:18:34;;;;;;;18.00;13.55;;;;;;;14.81;65.99;101830.19;5033128;28;20022;-69
2023/09/15 02:21:00;;;;;;;16.20;14.00;;;;;;;14.84;65.88;101835.28;5024126;28;20032;-70
2023/09/15 02:23:26;;;;;;;15.43;13.52;;;;;;;14.79;65.61;101828.78;5019174;28;20018;-70
2023/09/15 02:25:52;;;;;;;15.20;13.63;;;;;;;14.81;65.55;101833.00;5022914;28;20133;-70
2023/09/15 02:28:20;;;;;;;17.30;13.18;;;;;;;14.78;65.61;101833.53;5031083;28;20049;-70
2023/09/15 02:30:46;;;;;;;16.33;13.13;;;;;;;14.77;65.47;101820.66;5032044;28;20080;-69
2023/09/15 02:33:11;;;;;;;15.65;13.30;;;;;;;14.81;65.75;101827.41;5033074;28;20067;-69
2023/09/15 02:35:37;;;;;;;14.77;13.23;;;;;;;14.76;65.72;101823.72;5031390;28;20396;-69
2023/09/15 02:38:03;;;;;;;15.27;13.18;;;;;;;14.70;65.69;101820.00;5029644;28;20031;-70
2023/09/15 02:40:29;;;;;;;15.38;13.55;;;;;;;14.69;65.65;101813.53;5024618;28;20017;-69
2023/09/15 02:42:54;;;;;;;15.20;13.07;;;;;;;14.68;65.58;101816.59;5031938;28;20037;-69
2023/09/15 02:45:20;;;;;;;15.43;13.43;;;;;;;14.66;65.45;101819.66;5032107;28;20373;-69
2023/09/15 02:47:46;;;;;;;15.60;14.00;;;;;;;14.58;65.70;101810.84;5030958;28;20034;-70
2023/09/15 02:50:11;;;;;;;17.77;14.20;;;;;;;14.61;65.78;101814.00;5032019;28;20449;-70
2023/09/15 02:52:36;;;;;;;17.45;14.48;;;;;;;14.60;65.44;101815.09;5032699;28;20045;-70
2023/09/15 02:55:04;;;;;;;15.75;14.15;;;;;;;14.57;65.56;101814.75;5028882;28;20029;-69
2023/09/15 02:57:32;;;;;;;16.30;13.85;;;;;;;14.55;65.59;101808.59;5029662;28;20075;-69
2023/09/15 02:59:57;;;;;;;15.18;13.27;;;;;;;14.53;65.53;101819.16;5030622;28;20033;-69
2023/09/15 03:02:23;;;;;;;16.75;13.88;;;;;;;14.52;65.85;101818.31;5023977;28;20041;-69
2023/09/15 03:04:49;;;;;;;14.32;12.90;;;;;;;14.51;65.92;101807.44;5011977;28;20115;-70
2023/09/15 03:07:15;;;;;;;15.45;13.82;;;;;;;14.43;66.13;101808.66;5024988;28;20388;-69
2023/09/15 03:09:41;;;;;;;17.73;14.32;;;;;;;14.43;66.39;101806.72;5032039;28;20132;-70
2023/09/15 03:12:06;;;;;;;18.50;14.05;;;;;;;14.41;66.44;101813.66;5031310;28;20567;-70
2023/09/15 03:14:32;;;;;;;15.68;13.90;;;;;;;14.43;65.75;101809.50;5031424;28;20537;-70
2023/09/15 03:16:58;;;;;;;14.77;13.38;;;;;;;14.44;66.18;101810.34;5030384;28;20099;-70
2023/09/15 03:19:24;;;;;;;15.98;13.35;;;;;;;14.42;66.05;101807.81;5015539;28;20049;-70
2023/09/15 03:21:50;;;;;;;16.95;14.15;;;;;;;14.41;66.29;101805.28;5012356;28;20055;-70
2023/09/15 03:24:16;;;;;;;16.30;13.32;;;;;;;14.44;65.97;101805.59;5012194;28;20116;-69
2023/09/15 03:26:41;;;;;;;14.88;13.30;;;;;;;14.34;65.93;101793.41;5011748;28;20092;-69
2023/09/15 03:29:07;;;;;;;15.60;14.10;;;;;;;14.38;66.11;101800.19;5025858;28;20472;-69
2023/09/15 03:31:32;;;;;;;15.40;13.52;;;;;;;14.35;65.80;101789.56;5029986;28;20134;-69
2023/09/15 03:33:58;;;;;;;15.45;13.85;;;;;;;14.33;65.80;101786.16;5031915;28;20037;-69
2023/09/15 03:36:26;;;;;;;16.23;13.52;;;;;;;14.30;65.40;101797.81;5013721;28;20061;-69
2023/09/15 03:38:51;;;;;;;15.77;13.38;;;;;;;14.25;66.26;101793.00;5011241;28;20042;-69
2023/09/15 03:41:16;;;;;;;15.55;13.95;;;;;;;14.27;66.20;101795.56;5011990;28;20040;-69
2023/09/15 03:43:42;;;;;;;15.48;13.95;;;;;;;14.18;66.36;101789.53;5021555;28;20034;-69
2023/09/15 03:46:07;;;;;;;16.05;12.68;;;;;;;14.17;66.01;101782.28;5031142;28;20494;-69
2023/09/15 03:48:32;;;;;;;14.43;12.93;;;;;;;14.18;66.17;101782.00;5030974;28;20028;-70
2023/09/15 03:50:58;;;;;;;15.18;13.00;;;;;;;14.18;66.03;101790.38;5021553;28;20159;-69
2023/09/15 03:53:23;;;;;;;14.68;13.27;;;;;;;14.18;66.26;101787.59;5025347;28;20458;-69
2023/09/15 03:55:49;;;;;;;13.55;12.25;;;;;;;14.19;66.02;101791.25;5011805;28;20038;-70
2023/09/15 03:58:15;;;;;;;14.07;12.77;;;;;;;14.15;66.00;101792.88;5025275;28;20395;-69
2023/09/15 04:00:41;;;;;;;14.45;12.63;;;;;;;14.12;66.14;101779.41;5029908;28;20033;-69
2023/09/15 04:03:06;;;;;;;14.80;13.30;;;;;;;14.12;66.12;101782.19;5031658;28;20113;-69
2023/09/15 04:05:32;;;;;;;14.50;13.02;;;;;;;14.09;66.02;101785.50;5030984;28;20061;-69
2023/09/15 04:07:58;;;;;;;14.95;13.38;;;;;;;14.08;66.44;101779.06;5030569;28;20465;-69
2023/09/15 04:10:23;;;;;;;17.58;13.65;;;;;;;14.07;66.02;101777.38;5026472;28;20033;-69
2023/09/15 04:12:48;;;;;;;14.30;12.48;;;;;;;14.08;66.06;101778.22;5030502;28;20018;-70
2023/09/15 04:15:15;;;;;;;15.77;12.30;;;;;;;14.06;66.07;101772.03;5029766;28;20041;-69
2023/09/15 04:17:41;;;;;;;14.95;12.60;;;;;;;14.07;66.04;101777.38;5031464;28;20036;-69
2023/09/15 04:20:09;;;;;;;14.65;13.25;;;;;;;13.97;66.38;101780.00;5030699;28;20073;-69
2023/09/15 04:22:36;;;;;;;14.75;12.20;;;;;;;14.04;66.47;101782.63;5028899;28;20026;-69
2023/09/15 04:25:02;;;;;;;15.05;12.32;;;;;;;13.99;66.67;101769.44;5029209;28;20033;-70
2023/09/15 04:27:28;;;;;;;13.60;11.98;;;;;;;14.00;66.37;101771.97;5027795;28;20045;-69
2023/09/15 04:29:55;;;;;;;14.32;12.30;;;;;;;13.97;66.21;101775.25;5030548;28;20025;-69
2023/09/15 04:32:21;;;;;;;13.38;11.43;;;;;;;13.95;66.45;101771.88;5030640;28;20064;-70
2023/09/15 04:34:46;;;;;;;16.02;12.40;;;;;;;13.95;66.45;101771.00;5025454;28;20101;-69
2023/09/15 04:37:12;;;;;;;12.95;11.50;;;;;;;13.96;66.73;101770.78;5030266;28;20044;-69
2023/09/15 04:39:41;;;;;;;13.07;11.82;;;;;;;13.91;66.59;101767.91;5026463;28;20037;-69
2023/09/15 04:42:06;;;;;;;16.17;11.18;;;;;;;13.91;66.68;101773.50;5025042;28;20029;-69
2023/09/15 04:44:32;;;;;;;13.20;11.23;;;;;;;13.95;66.83;101771.00;5030371;28;20468;-69
2023/09/15 04:46:57;;;;;;;13.20;11.77;;;;;;;13.96;66.64;101776.38;5034311;28;20108;-69
2023/09/15 04:49:22;;;;;;;12.00;10.60;;;;;;;13.93;66.59;101776.88;5030330;28;20029;-70
2023/09/15 04:51:47;;;;;;;13.60;10.90;;;;;;;13.93;66.37;101776.03;5026233;28;20492;-69
2023/09/15 04:54:13;;;;;;;12.27;11.00;;;;;;;13.85;66.48;101776.44;5033694;28;20465;-70
2023/09/15 04:56:38;;;;;;;12.10;10.82;;;;;;;13.89;66.46;101777.63;5027000;28;20060;-71
2023/09/15 04:59:04;;;;;;;15.40;11.25;;;;;;;13.86;66.41;101776.19;5031941;28;20037;-68
2023/09/15 05:01:30;;;;;;;12.35;10.90;;;;;;;13.86;66.61;101792.91;5023264;28;20032;-73
2023/09/15 05:03:55;;;;;;;14.27;11.82;;;;;;;13.83;67.08;101787.84;5025204;28;20400;-71
2023/09/15 05:06:23;;;;;;;11.65;10.43;;;;;;;13.87;66.72;101786.25;5030672;28;20040;-71
2023/09/15 05:08:48;;;;;;;15.55;11.45;;;;;;;13.81;67.28;101795.63;5030913;28;20052;-72
2023/09/15 05:11:14;;;;;;;16.55;11.60;;;;;;;13.82;67.48;101802.06;5030281;28;20022;-71
2023/09/15 05:13:39;;;;;;;12.32;11.13;;;;;;;13.78;67.29;101795.28;5031277;28;20029;-71
2023/09/15 05:16:04;;;;;;;14.60;12.05;;;;;;;13.78;67.42;101792.50;5030916;28;20014;-71
2023/09/15 05:18:32;;;;;;;13.60;11.02;;;;;;;13.82;67.13;101791.72;5027879;28;20507;-72
2023/09/15 05:20:58;;;;;;;12.13;10.82;;;;;;;13.81;67.30;101792.00;5027199;28;20551;-71
2023/09/15 05:23:23;;;;;;;12.88;11.07;;;;;;;13.75;66.76;101796.63;5032611;28;20104;-73
2023/09/15 05:25:50;;;;;;;13.88;11.02;;;;;;;13.77;67.28;101797.22;5030005;28;20128;-68
2023/09/15 05:28:16;;;;;;;13.88;12.38;;;;;;;13.79;67.40;101797.81;5033541;28;20234;-69
2023/09/15 05:30:43;;;;;;;12.85;11.55;;;;;;;13.74;67.48;101800.53;5025375;28;20025;-70
2023/09/15 05:33:09;;;;;;;13.35;11.00;;;;;;;13.71;67.28;101796.28;5030681;28;20045;-71
2023/09/15 05:35:36;;;;;;;12.40;11.10;;;;;;;13.73;66.92;101798.84;5036812;28;20020;-72
2023/09/15 05:38:02;;;;;;;13.10;11.55;;;;;;;13.72;67.00;101795.19;5041172;28;20021;-72
2023/09/15 05:40:27;;;;;;;12.63;11.25;;;;;;;13.74;66.91;101797.72;5043949;28;20045;-72
2023/09/15 05:42:54;;;;;;;13.52;10.82;;;;;;;13.65;67.27;101796.44;5050165;28;20484;-72
2023/09/15 05:45:19;;;;;;;14.10;10.65;;;;;;;13.69;67.57;101803.22;5046199;28;20033;-72
2023/09/15 05:47:45;;;;;;;14.20;11.30;;;;;;;13.74;67.67;101794.94;5019222;28;20039;-72
2023/09/15 05:50:10;;;;;;;20.25;11.75;;;;;;;13.77;67.48;101796.38;5031610;28;20049;-72
2023/09/15 05:52:35;;;;;;;14.45;11.43;;;;;;;13.77;67.52;101799.19;5029248;28;20481;-72
2023/09/15 05:55:04;;;;;;;12.68;11.32;;;;;;;13.82;67.90;101797.31;5032484;28;20029;-72
2023/09/15 05:57:32;;;;;;;14.90;11.52;;;;;;;13.81;67.77;101803.16;5032694;28;20476;-72
2023/09/15 05:59:57;;;;;;;17.13;11.98;;;;;;;13.86;67.84;101800.44;5019853;28;20049;-72
2023/09/15 06:02:23;;;;;;;13.43;12.10;;;;;;;13.84;68.04;101797.91;5025212;28;20017;-72
2023/09/15 06:04:50;;;;;;;13.27;10.85;;;;;;;13.88;68.09;101801.91;5031897;28;20137;-72
2023/09/15 06:07:17;;;;;;;14.93;11.60;;;;;;;13.93;68.02;101793.59;5032154;28;20449;-72
2023/09/15 06:09:43;;;;;;;12.40;11.10;;;;;;;13.98;68.35;101790.06;5032545;28;20050;-73
2023/09/15 06:12:08;;;;;;;14.32;11.25;;;;;;;14.04;68.18;101800.22;5032650;28;20033;-73
2023/09/15 06:14:35;;;;;;;14.18;10.93;;;;;;;14.07;68.10;101799.72;5031863;28;20022;-72
2023/09/15 06:17:02;;;;;;;15.20;12.05;;;;;;;14.10;68.54;101801.13;5029973;28;20076;-72
2023/09/15 06:19:28;;;;;;;12.43;10.65;;;;;;;14.11;68.44;101803.69;5031959;28;20033;-72
2023/09/15 06:21:53;;;;;;;14.80;11.40;;;;;;;14.14;68.77;101807.91;5032116;28;20034;-73
2023/09/15 06:24:18;;;;;;;13.32;11.95;;;;;;;14.24;68.63;101808.09;5032758;28;20021;-72
2023/09/15 06:26:44;;;;;;;12.27;11.07;;;;;;;14.29;68.62;101801.72;5032218;28;20105;-72
2023/09/15 06:29:09;;;;;;;13.68;11.23;;;;;;;14.32;68.81;101793.69;5031994;28;20025;-72
2023/09/15 06:31:35;;;;;;;16.23;10.82;;;;;;;14.39;68.58;101799.94;5032022;28;20021;-72
2023/09/15 06:34:00;;;;;;;12.27;10.32;;;;;;;14.41;68.80;101792.16;5031235;28;20112;-72
2023/09/15 06:36:26;;;;;;;15.77;11.30;;;;;;;14.45;68.99;101787.75;5027702;28;20087;-73
2023/09/15 06:38:51;;;;;;;14.27;10.90;;;;;;;14.49;69.16;101790.91;5027984;28;20025;-72
2023/09/15 06:41:17;;;;;;;15.82;11.57;;;;;;;14.57;69.52;101798.00;5031024;28;20385;-73
2023/09/15 06:43:43;;;;;;;14.27;11.98;;;;;;;14.59;69.42;101795.81;5026144;28;20138;-72
2023/09/15 06:46:08;;;;;;;17.27;11.82;;;;;;;14.59;69.59;101790.22;5028003;28;20025;-72
2023/09/15 06:48:33;;;;;;;17.38;12.13;;;;;;;14.63;69.77;101794.19;5020509;28;20029;-72
2023/09/15 06:50:59;;;;;;;14.25;11.30;;;;;;;14.65;69.81;101783.59;5016337;28;20472;-76
2023/09/15 06:53:26;;;;;;;14.25;10.50;;;;;;;14.66;70.09;101779.72;5014203;28;20025;-72
2023/09/15 06:55:55;;;;;;;16.20;11.05;;;;;;;14.66;70.85;101785.31;5019167;28;20101;-73
2023/09/15 06:58:22;;;;;;;13.77;10.65;;;;;;;14.72;70.65;101781.47;5016409;28;20029;-70
2023/09/15 07:00:47;;;;;;;14.63;11.68;;;;;;;14.72;70.99;101779.50;5022219;28;20054;-72
2023/09/15 07:03:13;;;;;;;15.13;11.52;;;;;;;14.75;70.63;101786.53;5023493;28;20428;-72
2023/09/15 07:05:39;;;;;;;16.55;11.52;;;;;;;14.79;71.29;101776.53;5029544;28;20030;-71
2023/09/15 07:08:04;;;;;;;14.07;11.18;;;;;;;14.79;71.57;101782.13;5025273;28;20034;-75
2023/09/15 07:10:29;;;;;;;14.27;9.90;;;;;;;14.87;71.15;101778.03;5025197;28;20094;-72
2023/09/15 07:12:55;;;;;;;13.48;9.98;;;;;;;14.88;71.09;101780.56;5029891;28;20025;-72
2023/09/15 07:15:20;;;;;;;13.35;10.27;;;;;;;14.88;70.84;101774.13;5030816;28;20037;-73
2023/09/15 07:17:45;;;;;;;13.90;10.27;;;;;;;14.88;71.63;101777.75;5028776;28;20160;-75
2023/09/15 07:20:11;;;;;;;14.82;10.18;;;;;;;14.92;71.63;101764.09;5028091;28;20030;-71
2023/09/15 07:22:36;;;;;;;14.57;9.80;;;;;;;14.95;71.49;101766.38;5017940;28;20041;-76
2023/09/15 07:25:02;;;;;;;14.45;10.57;;;;;;;15.00;71.61;101762.81;5027263;28;20036;-75
2023/09/15 07:27:27;;;;;;;12.23;10.25;;;;;;;15.10;71.36;101765.75;5029433;28;20033;-75
2023/09/15 07:29:53;;;;;;;12.70;9.57;;;;;;;15.18;71.25;101768.06;5026846;28;20025;-76
2023/09/15 07:32:18;;;;;;;15.52;9.60;;;;;;;15.30;71.36;101762.34;5025978;28;20048;-73
2023/09/15 07:34:44;;;;;;;16.38;10.05;;;;;;;15.38;71.35;101759.06;5028161;28;20564;-75
2023/09/15 07:37:10;;;;;;;13.73;9.75;;;;;;;15.48;70.46;101764.75;5030118;28;20030;-74
2023/09/15 07:39:35;;;;;;;11.07;9.57;;;;;;;15.54;70.77;101754.47;5029869;28;20443;-73
2023/09/15 07:42:01;;;;;;;12.38;9.10;;;;;;;15.64;70.24;101760.16;5026447;28;20018;-74
2023/09/15 07:44:32;;;;;;;11.98;8.43;;;;;;;15.72;70.10;101754.13;5025320;28;20458;-74
2023/09/15 07:46:58;;;;;;;13.48;9.60;;;;;;;15.85;69.77;101753.69;5030408;28;20087;-73
2023/09/15 07:49:24;;;;;;;11.90;9.18;;;;;;;15.99;70.02;101753.22;5026397;28;20040;-72
2023/09/15 07:51:50;;;;;;;16.13;8.93;;;;;;;16.12;69.13;101749.97;5029592;28;20033;-72
2023/09/15 07:54:16;;;;;;;12.57;9.38;;;;;;;16.24;68.48;101750.63;5030954;28;20022;-72
2023/09/15 07:56:41;;;;;;;12.52;9.15;;;;;;;16.30;68.22;101743.94;5025247;28;20090;-72
2023/09/15 07:59:14;;;;;;;9.50;7.53;;;;;;;16.54;68.83;101751.94;5022651;28;20035;-69
2023/09/15 08:01:40;;;;;;;14.02;9.70;;;;;;;16.62;68.30;101757.00;5018289;28;20033;-69
2023/09/15 08:04:08;;;;;;;12.88;9.38;;;;;;;16.73;67.41;101756.00;5014171;28;20056;-69
2023/09/15 08:06:34;;;;;;;13.63;8.93;;;;;;;16.87;67.66;101747.94;5020026;28;20025;-69
2023/09/15 08:09:04;;;;;;;12.85;9.70;;;;;;;17.04;67.78;101754.16;5030423;28;20052;-70
2023/09/15 08:11:34;;;;;;;13.80;10.05;;;;;;;17.05;66.61;101749.41;5029502;28;20030;-70
2023/09/15 08:14:06;;;;;;;11.40;9.63;;;;;;;17.25;66.95;101743.00;5029826;28;20022;-70
2023/09/15 08:16:31;;;;;;;11.45;9.27;;;;;;;17.39;66.69;101744.19;5025683;28;20029;-70
2023/09/15 08:18:59;;;;;;;13.55;9.23;;;;;;;17.47;66.19;101745.59;5024496;28;20483;-70
2023/09/15 08:21:25;;;;;;;13.25;9.35;;;;;;;17.53;65.42;101744.50;5013767;28;20117;-70
2023/09/15 08:23:54;;;;;;;15.65;8.57;;;;;;;17.57;65.33;101735.25;5011024;28;20022;-70
2023/09/15 08:26:19;;;;;;;13.20;9.07;;;;;;;17.67;65.71;101742.81;5010905;28;20026;-70
2023/09/15 08:28:46;;;;;;;13.18;8.48;;;;;;;17.79;65.45;101742.56;5009552;28;20113;-71
2023/09/15 08:31:11;;;;;;;13.35;7.95;;;;;;;17.88;64.62;101736.13;5015613;28;20020;-70
2023/09/15 08:33:36;;;;;;;11.23;7.82;;;;;;;18.02;64.59;101738.38;5028275;28;20037;-70
2023/09/15 08:36:03;;;;;;;10.73;6.90;;;;;;;18.13;63.15;101743.69;5022613;28;20026;-70
2023/09/15 08:38:31;;;;;;;11.20;7.18;;;;;;;18.28;63.50;101747.63;5022346;28;20133;-70
2023/09/15 08:41:03;;;;;;;11.80;7.57;;;;;;;18.31;62.32;101744.22;5028885;28;20112;-70
2023/09/15 08:43:29;;;;;;;11.65;7.28;;;;;;;18.43;62.88;101741.97;5026586;28;20858;-70
2023/09/15 08:45:55;;;;;;;10.52;6.65;;;;;;;18.58;61.95;101736.28;5030543;28;20105;-69
2023/09/15 08:48:25;;;;;;;8.35;6.50;;;;;;;18.70;62.63;101733.19;5028512;28;20480;-70
2023/09/15 08:50:56;;;;;;;9.32;6.28;;;;;;;18.75;61.40;101729.53;5011627;28;20038;-70
2023/09/15 08:53:23;;;;;;;9.43;6.45;;;;;;;18.79;60.25;101734.31;5010376;28;20548;-70
2023/09/15 08:55:48;;;;;;;10.32;6.60;;;;;;;18.92;60.35;101724.41;5014290;28;20068;-69
2023/09/15 08:58:14;;;;;;;9.15;6.00;;;;;;;18.98;60.72;101714.81;5020638;28;20116;-69
2023/09/15 09:00:39;;;;;;;10.65;6.45;;;;;;;19.09;60.30;101715.59;5026957;28;20076;-70
2023/09/15 09:03:08;;;;;;;8.43;6.60;;;;;;;19.16;60.43;101726.53;5026285;28;20036;-70
2023/09/15 09:05:35;;;;;;;11.23;6.30;;;;;;;19.20;59.32;101724.81;5027668;28;20480;-70
2023/09/15 09:08:02;;;;;;;7.82;5.93;;;;;;;19.24;59.77;101725.91;5028974;28;20099;-70
2023/09/15 09:10:27;;;;;;;10.18;6.25;;;;;;;19.29;59.04;101720.25;5028180;28;20043;-70
2023/09/15 09:12:53;;;;;;;9.07;5.75;;;;;;;19.35;59.28;101719.09;5019273;28;20104;-70
2023/09/15 09:15:25;;;;;;;9.38;5.70;;;;;;;19.40;58.69;101726.66;5010290;28;20105;-70
2023/09/15 09:17:50;;;;;;;7.38;5.72;;;;;;;19.44;59.12;101722.97;5009681;28;20038;-70
2023/09/15 09:20:29;;;;;;;11.52;5.68;;;;;;;19.55;59.38;101724.59;5013622;28;20084;-70
2023/09/15 09:22:54;;;;;;;7.30;5.28;;;;;;;19.64;59.68;101718.38;5029934;28;20021;-70
2023/09/15 09:25:33;;;;;;;9.77;5.30;;;;;;;19.77;59.38;101724.19;5029256;28;20057;-70
2023/09/15 09:27:59;;;;;;;10.00;5.03;;;;;;;19.84;58.35;101721.84;5025628;28;20030;-70
2023/09/15 09:30:29;;;;;;;7.07;5.22;;;;;;;19.85;57.65;101725.53;5010989;28;20488;-70
2023/09/15 09:32:54;;;;;;;9.35;4.95;;;;;;;19.87;57.23;101717.63;5013547;28;20022;-70
2023/09/15 09:35:20;;;;;;;8.10;4.97;;;;;;;19.92;57.85;101719.53;5013899;28;20030;-70
2023/09/15 09:37:45;;;;;;;6.47;5.13;;;;;;;19.99;57.92;101714.41;5031028;28;20179;-70
2023/09/15 09:40:11;;;;;;;8.68;5.50;;;;;;;19.98;57.12;101713.56;5030284;28;20491;-70
2023/09/15 09:42:36;;;;;;;7.70;4.60;;;;;;;20.04;57.10;101714.34;5033067;28;20037;-68
2023/09/15 09:45:03;;;;;;;7.40;4.75;;;;;;;20.14;56.74;101708.63;5024743;28;20516;-70
2023/09/15 09:47:29;;;;;;;7.47;4.75;;;;;;;20.26;57.21;101705.41;5018797;28;20030;-70
2023/09/15 09:49:54;;;;;;;8.27;4.65;;;;;;;20.31;57.14;101709.00;5013391;28;20393;-70
2023/09/15 09:52:22;;;;;;;8.40;4.15;;;;;;;20.41;56.83;101702.44;5012757;28;20018;-70
2023/09/15 09:54:49;;;;;;;5.45;3.95;;;;;;;20.47;56.42;101706.84;5020840;28;20034;-70
2023/09/15 09:57:15;;;;;;;5.75;4.00;;;;;;;20.49;56.44;101698.16;5032162;28;20033;-70
2023/09/15 09:59:42;;;;;;;6.95;4.00;;;;;;;20.55;55.47;101708.22;5028677;28;20040;-70
2023/09/15 10:02:07;;;;;;;7.38;4.35;;;;;;;20.66;56.09;101698.50;5031590;28;20476;-70
2023/09/15 10:04:33;;;;;;;6.03;4.13;;;;;;;20.67;55.21;101703.03;5031823;28;20036;-70
2023/09/15 10:06:59;;;;;;;8.00;3.72;;;;;;;20.73;56.02;101698.97;5031982;28;20052;-70
2023/09/15 10:09:25;;;;;;;6.00;4.07;;;;;;;20.81;55.81;101701.13;5031302;28;20554;-70
2023/09/15 10:11:52;;;;;;;8.35;3.65;;;;;;;20.87;55.72;101695.41;5032765;28;20021;-70
2023/09/15 10:14:19;;;;;;;5.97;4.07;;;;;;;20.93;55.67;101695.06;5031641;28;20034;-70
2023/09/15 10:16:45;;;;;;;5.15;3.97;;;;;;;20.95;55.33;101686.31;5030709;28;20873;-69
2023/09/15 10:19:13;;;;;;;7.13;3.90;;;;;;;21.03;54.71;101677.16;5028518;28;20408;-69
2023/09/15 10:21:39;;;;;;;6.22;4.25;;;;;;;20.95;53.93;101673.03;5032016;28;20034;-70
2023/09/15 10:24:09;;;;;;;7.50;4.43;;;;;;;20.99;54.70;101674.09;5031383;28;20036;-70
2023/09/15 10:26:38;;;;;;;8.10;4.57;;;;;;;20.96;53.86;101668.22;5031342;28;20029;-70
2023/09/15 10:29:04;;;;;;;7.00;5.00;;;;;;;20.95;53.70;101667.38;5032509;28;20049;-70
2023/09/15 10:31:35;;;;;;;7.05;4.28;;;;;;;21.06;54.92;101656.75;5031151;28;20425;-70
2023/09/15 10:34:06;;;;;;;8.45;4.10;;;;;;;21.08;55.47;101674.25;5024754;28;20025;-70
2023/09/15 10:36:33;;;;;;;8.70;4.70;;;;;;;21.08;54.15;101665.78;5025733;28;20022;-70
2023/09/15 10:39:10;;;;;;;8.45;4.57;;;;;;;21.08;54.94;101654.50;5030815;28;20048;-70
2023/09/15 10:41:38;;;;;;;7.22;4.28;;;;;;;21.15;54.30;101660.59;5021350;28;20030;-70
2023/09/15 10:44:04;;;;;;;6.80;4.68;;;;;;;21.21;54.78;101661.34;5024512;28;20105;-69
2023/09/15 10:46:42;;;;;;;6.38;4.93;;;;;;;21.24;54.93;101653.13;5030886;28;20175;-68
2023/09/15 10:49:23;;;;;;;6.45;4.47;;;;;;;21.29;54.91;101653.03;5030372;28;20040;-68
2023/09/15 10:51:59;;;;;;;7.13;4.00;;;;;;;21.30;54.39;101653.91;5030982;28;20033;-71
2023/09/15 10:54:29;;;;;;;7.78;4.72;;;;;;;21.24;54.36;101640.97;5021860;28;20156;-71
2023/09/15 10:56:55;;;;;;;6.35;4.70;;;;;;;21.31;54.25;101636.63;5022929;28;20029;-71
2023/09/15 10:59:21;;;;;;;7.30;4.10;;;;;;;21.39;54.07;101637.13;5030801;28;20048;-70
2023/09/15 11:01:46;;;;;;;6.85;3.78;;;;;;;21.44;54.66;101629.38;5028260;28;20095;-70
2023/09/15 11:04:17;;;;;;;6.90;4.47;;;;;;;21.44;53.77;101635.03;5031767;28;20040;-69
2023/09/15 11:06:46;;;;;;;8.02;3.90;;;;;;;21.53;53.87;101636.00;5031289;28;20045;-69
2023/09/15 11:09:13;;;;;;;4.68;3.40;;;;;;;21.60;53.15;101634.78;5030690;28;20120;-69
2023/09/15 11:11:51;;;;;;;4.75;3.90;;;;;;;21.69;53.18;101628.13;5029498;28;20030;-69